MMPS 090342Z 07005KT 9SM SKC 26/19 A2994 RMK HZY= 090343

MMPS 090248Z 24003KT 9SM SKC 27/20 A2992 RMK HZY= 090250

MMPS 090153Z 24003KT 9SM SCT230 27/21 A2990 RMK 8/001 HZY= 090154

MMPS 090044Z 23005KT 10SM SCT230 28/20 A2987 RMK 8/001 CU N HZY= 090044

MMPS 090036Z RTD 23005KT 15SM SCT230 29/21 A2987 RMK 8/001 CU N= 090037

MMPS 082242Z 23006KT 15SM SCT230 30/22 A2984 RMK 8/001 CU N= 082243

MMPS 082140Z 21005KT 15SM SCT230 30/21 A2984 RMK 8/001 CU N= 082140

MMPS 082041Z 21007KT 6SM SCT230 30/22 A2985 RMK 8/001 CU N= 082041

MMPS 081958Z RTD 22006KT 15SM SCT230 30/22 A2985 RMK 8/001 CU N= 081959

MMPS 081851Z 20006KT 15SM SKC 30/22 A2988 RMK CU N= 081852

MMPS 081743Z 22006KT 15SM SKC 31/23 A2991= 081743

MMPS 081642Z 18005KT 15SM SKC 31/24 A2994= 081642

MMPS 081553Z 00000KT 15SM SKC 31/24 A2996= 081553

MMPS 081453Z 00000KT 15SM SKC 27/22 A2996= 081454

MMPS 081353Z 06008KT 15SM SKC 24/21 A2994= 081354

MMPS 081250Z 06006KT 15SM SKC 23/20 A2992 RMK RTS= 081250

MMPS 080540Z 31005KT 9SM SKC 25/20 A2991 RMK HZY= 080540

MMPS 080443Z 30005KT 9SM SCT070 26/20 A2991 RMK 8/030 CI HZY= 080444

MMPS 080340Z 28003KT 9SM FEW210 26/20 A2991 RMK 8/001 HZY= 080340

MMPS 080241Z 25003KT 9SM SCT210 27/20 A2990 RMK 8/001 HZY= 080243

MMPS 080152Z 24003KT 9SM BKN070 28/22 A2988 RMK 8/030 HZY= 080153

MMPS 080040Z 00000KT 12SM SCT090 SCT230 27/21 A2986 RMK 8/031 HZY= 080040

MMPS 072341Z 24003KT 15SM FEW015 SCT070 27/21 A2985 RMK 8/130= 072342

MMPS 072246Z 22005KT 15SM FEW015 SCT070 29/21 A2984 RMK 8/130= 072246

MMPS 072203Z RTD 24005KT 15SM FEW015 SCT070 30/22 A2983 RMK 8/130= 072204

MMPS 072055Z 20007KT 15SM SKC 30/22 A2983= 072055

MMPS 071942Z 00000KT 15SM SKC 30/22 A2984= 071942

MMPS 071846Z 16007KT 15SM SKC 30/22 A2986= 071846

MMPS 071648Z 00000KT 15SM SKC 30/23 A2991= 071649

MMPS 071541Z 00000KT 15SM SKC 30/24 A2992= 071542

MMPS 071451Z 06006KT 15SM SKC 27/22 A2993= 071452

MMPS 071341Z 06008KT 15SM SKC 24/20 A2991= 071342

MMPS 071252Z 06008KT 15SM SKC 22/19 A2990 RMK RTS= 071253

MMPS 070443Z 06007KT 9SM SKC 25/20 A2994 RMK HZY= 070443

MMPS 070341Z 06003KT 9SM SKC 26/20 A2993 RMK HZY= 070343

MMPS 070242Z 05005KT 9SM SKC 27/21 A2991 RMK HZY= 070244

MMPS 070144Z 32003KT 9SM SKC 28/21 A2989 RMK HZY= 070145

MMPS 070044Z 30005KT 9SM SKC 28/21 A2986 RMK HZY= 070044

MMPS 062340Z 26005KT 15SM SKC 29/22 A2985 RMK CU N= 062340

MMPS 062242Z 24005KT 15SM SKC 30/22 A2983 RMK CU N= 062243

MMPS 062140Z 24006KT 15SM SKC 31/22 A2983 RMK CU N= 062141

MMPS 062040Z 27010KT 15SM SKC 31/23 A2985 RMK CU N= 062041

MMPS 062004Z RTD 27007KT 15SM SKC 31/23 A2988 RMK CU N= 062005

MMPS 061841Z 24008KT 15SM SKC 31/23 A2991= 061842

MMPS 061741Z 26008KT 15SM SKC 31/23 A2994= 061742

MMPS 061641Z 25004KT 15SM SKC 30/22 A2997= 061641

MMPS 061541Z 24003KT 15SM SKC 29/24 A2999= 061542

MMPS 061441Z 05004KT 15SM SKC 27/23 A2999= 061442

MMPS 061340Z 05007KT 15SM SKC 23/20 A2997= 061340

MMPS 061247Z 05005KT 13SM SCT070 22/18 A2995 RMK 8/010 RTS= 061248